Prescott Valley, AZ

9:24 AM MST on October 01, 2016 (GMT -0700)
Naklas | | Change Station

Elev 4976 ft 34.62 °N, 112.31 °W | Updated 9 seconds ago

Scattered Clouds
Scattered Clouds
73.0 °F
Feels Like 77 °F
N
0.7
Wind Variable Wind from South
Gusts 1.6 mph

Today
High -- | Low -- °F
--% Chance of Precip.
Yesterday
High -- | Low -- °F
Precip. -- in
Pressure 30.06 in
Visibility 10.0 miles
Clouds Scattered Clouds 9000 ft
Heat Index 77 °F
Dew Point 52 °F
Humidity 48%
Rainfall 0.00 in
Snow Depth Not available.
6:24 AM 6:12 PM
New Moon, 0% visible
METAR KPRC 011553Z 11003KT 10SM SCT090 19/11 A3024 RMK AO2 SLP178 T01940106
Pressure 30.06 in
Visibility 10.0 miles
Clouds Scattered Clouds 9000 ft
Heat Index 77 °F
Dew Point 52 °F
Humidity 48%
Rainfall 0.00 in
Snow Depth Not available.
6:24 AM 6:12 PM
New Moon, 0% visible
METAR KPRC 011553Z 11003KT 10SM SCT090 19/11 A3024 RMK AO2 SLP178 T01940106

10-Day Weather Forecast

Almanac

Astronomy

Oct. 01, 2016 Rise Set
Actual Time
Civil Twilight
Nautical Twilight
Astronomical Twilight
Moon
Length of Visible Light
Length of Day
Tomorrow will be .
, % of the Moon is Illuminated

Today's Extremes

State Highs State Lows

Community

WunderPhotos

Upload Photos

1,942,957 photos uploaded!

WunderBlog® & News

Nearby

Air Quality

  Air Quality AQ Index Pollutant
Not available.

Snow Depth

Station Depth Elevation

Earthquake Activity

City Distance Mag. Time & Date
Minimum magnitude displayed is 2.5.

Coastal Water Temperatures

Place Temperature

Stations

Nearby Weather Stations

Station Location Temp. Windchill Dew Point Humidity Wind Precip. Elev Updated Type
                   

Watches & Warnings

There are currently no watches in effect.